Time;durP1;ratioP1;P1;durP2;ratioP2;P2;SDS_P1;SDS_P2;PMS_P1;PMS_P2;Temp;Humidity;BMP_temperature;BMP_pressure;BME280_temperature;BME280_humidity;BME280_pressure;Samples;Min_cycle;Max_cycle;Signal;HPM_P1;HPM_P2
2022/02/13 00:01:15;;;;;;;1.98;1.00;;;20.40;49.20;;;;;;4992534;28;20121;-68
2022/02/13 00:03:41;;;;;;;1.17;0.82;;;20.40;49.30;;;;;;4994005;28;20105;-65
2022/02/13 00:06:06;;;;;;;1.23;0.80;;;20.40;49.20;;;;;;4995656;28;20043;-68
2022/02/13 00:08:32;;;;;;;1.88;1.00;;;20.40;49.20;;;;;;4993814;28;20120;-66
2022/02/13 00:10:57;;;;;;;1.38;0.82;;;20.40;49.80;;;;;;4994682;28;20484;-68
2022/02/13 00:13:23;;;;;;;1.23;0.88;;;20.40;49.20;;;;;;4989546;28;20105;-66
2022/02/13 00:15:48;;;;;;;1.80;1.00;;;20.40;49.20;;;;;;5008015;28;20046;-68
2022/02/13 00:18:14;;;;;;;1.52;0.90;;;20.40;49.20;;;;;;4992115;28;20738;-67
2022/02/13 00:20:40;;;;;;;1.23;0.73;;;20.40;49.30;;;;;;4994676;28;20096;-64
2022/02/13 00:23:05;;;;;;;1.20;0.80;;;20.40;49.20;;;;;;4993674;28;20061;-70
2022/02/13 00:25:31;;;;;;;1.60;0.90;;;20.40;49.20;;;;;;4999747;28;20061;-64
2022/02/13 00:27:56;;;;;;;2.13;1.00;;;20.40;49.30;;;;;;4993351;28;20021;-66
2022/02/13 00:30:22;;;;;;;2.15;1.00;;;20.40;49.30;;;;;;4992128;28;20117;-68
2022/02/13 00:32:50;;;;;;;1.60;0.80;;;20.30;49.20;;;;;;4994345;28;20095;-68
2022/02/13 00:35:16;;;;;;;1.50;0.80;;;20.30;49.30;;;;;;5011146;28;20136;-64
2022/02/13 00:37:42;;;;;;;1.25;0.90;;;20.40;49.20;;;;;;4996440;28;20114;-68
2022/02/13 00:40:10;;;;;;;1.25;0.90;;;20.40;49.20;;;;;;5011172;28;20450;-68
2022/02/13 00:42:36;;;;;;;2.75;1.02;;;20.30;49.10;;;;;;4997337;28;20105;-68
2022/02/13 00:45:03;;;;;;;1.80;0.88;;;20.30;49.10;;;;;;4996187;28;20952;-68
2022/02/13 00:47:29;;;;;;;2.40;1.00;;;20.40;49.10;;;;;;4995232;28;20033;-68
2022/02/13 00:49:54;;;;;;;1.92;1.00;;;20.40;49.10;;;;;;4994503;28;20034;-68
2022/02/13 00:52:20;;;;;;;1.13;0.85;;;20.40;49.00;;;;;;5012204;28;20034;-65
2022/02/13 00:54:45;;;;;;;1.80;0.90;;;20.40;49.00;;;;;;5014779;28;20710;-68
2022/02/13 00:57:11;;;;;;;1.52;0.80;;;20.40;49.00;;;;;;5000492;28;20072;-68
2022/02/13 00:59:37;;;;;;;1.40;0.80;;;20.40;49.00;;;;;;4997666;28;20029;-65
2022/02/13 01:02:03;;;;;;;1.10;0.85;;;20.40;49.00;;;;;;4998590;28;20482;-67
2022/02/13 01:04:28;;;;;;;1.77;0.90;;;20.40;48.90;;;;;;4999916;28;20034;-69
2022/02/13 01:06:55;;;;;;;1.13;0.80;;;20.40;48.90;;;;;;4999463;28;20084;-68
2022/02/13 01:09:20;;;;;;;1.20;0.82;;;20.40;48.90;;;;;;4999740;28;20061;-68
2022/02/13 01:11:46;;;;;;;1.33;0.90;;;20.40;48.80;;;;;;5000636;28;20058;-66
2022/02/13 01:14:12;;;;;;;1.25;0.80;;;20.40;48.80;;;;;;4999333;28;20449;-68
2022/02/13 01:16:37;;;;;;;0.88;0.70;;;20.40;48.80;;;;;;4999173;28;20065;-66
2022/02/13 01:19:03;;;;;;;1.10;0.73;;;20.40;48.80;;;;;;4997523;28;20025;-65
2022/02/13 01:21:29;;;;;;;1.40;0.90;;;20.40;48.70;;;;;;4999225;28;20049;-68
2022/02/13 01:23:55;;;;;;;1.35;0.80;;;20.40;48.70;;;;;;4999663;28;20531;-68
2022/02/13 01:26:21;;;;;;;1.63;0.80;;;20.40;49.20;;;;;;4998158;28;20038;-68
2022/02/13 01:28:47;;;;;;;0.80;0.70;;;20.40;48.70;;;;;;4998352;28;20080;-68
2022/02/13 01:31:13;;;;;;;1.50;0.90;;;20.40;48.70;;;;;;4998087;28;20073;-68
2022/02/13 01:33:39;;;;;;;1.15;0.80;;;20.40;48.70;;;;;;4998392;28;20398;-69
2022/02/13 01:36:05;;;;;;;1.25;0.80;;;20.40;48.60;;;;;;4999629;28;20018;-69
2022/02/13 01:38:31;;;;;;;0.90;0.70;;;20.40;48.60;;;;;;4999232;28;20034;-68
2022/02/13 01:40:57;;;;;;;1.13;0.82;;;20.30;48.60;;;;;;4995761;28;20061;-67
2022/02/13 01:43:23;;;;;;;1.52;0.80;;;20.30;48.60;;;;;;4999916;28;20081;-68
2022/02/13 01:45:49;;;;;;;1.08;0.70;;;20.30;48.50;;;;;;4996899;28;20218;-69
2022/02/13 01:48:14;;;;;;;1.50;0.90;;;20.30;48.60;;;;;;4998267;28;20621;-68
2022/02/13 01:50:41;;;;;;;1.13;0.82;;;20.30;48.50;;;;;;4999948;28;20066;-68
2022/02/13 01:53:10;;;;;;;1.02;0.70;;;20.30;49.10;;;;;;4998975;28;20026;-68
2022/02/13 01:55:36;;;;;;;1.52;0.80;;;20.30;48.50;;;;;;5014432;28;20030;-68
2022/02/13 01:58:02;;;;;;;1.33;0.90;;;20.30;48.50;;;;;;5011841;28;20060;-66
2022/02/13 02:00:27;;;;;;;0.70;0.65;;;20.30;48.50;;;;;;5010394;28;20030;-64
2022/02/13 02:02:53;;;;;;;1.33;0.80;;;20.30;48.50;;;;;;5012340;28;20113;-68
2022/02/13 02:05:19;;;;;;;1.42;0.80;;;20.20;48.40;;;;;;4997368;28;20037;-67
2022/02/13 02:07:45;;;;;;;1.33;0.80;;;20.30;48.50;;;;;;4999425;28;20172;-65
2022/02/13 02:10:11;;;;;;;1.40;1.10;;;20.30;48.50;;;;;;4998983;28;20130;-68
2022/02/13 02:12:38;;;;;;;1.42;0.80;;;20.30;48.50;;;;;;5013137;28;20185;-68
2022/02/13 02:15:05;;;;;;;1.10;0.80;;;20.30;48.50;;;;;;4995913;28;20148;-65
2022/02/13 02:17:32;;;;;;;1.50;0.90;;;20.30;48.50;;;;;;4997996;28;20040;-64
2022/02/13 02:19:57;;;;;;;1.88;0.88;;;20.30;48.50;;;;;;4997022;28;20109;-68
2022/02/13 02:22:23;;;;;;;1.30;0.85;;;20.20;48.40;;;;;;4999334;28;20111;-68
2022/02/13 02:24:49;;;;;;;1.25;0.80;;;20.20;48.40;;;;;;4996719;28;20133;-67
2022/02/13 02:27:15;;;;;;;1.15;0.80;;;20.30;48.40;;;;;;4998524;28;20564;-68
2022/02/13 02:29:40;;;;;;;1.13;0.77;;;20.20;48.40;;;;;;4995513;28;20378;-67
2022/02/13 02:32:10;;;;;;;2.42;0.82;;;20.20;48.40;;;;;;4999967;28;20065;-65
2022/02/13 02:34:40;;;;;;;1.73;0.90;;;20.20;48.40;;;;;;5011655;28;20044;-68
2022/02/13 02:37:07;;;;;;;1.05;0.80;;;20.20;48.90;;;;;;4997500;28;20037;-68
2022/02/13 02:39:33;;;;;;;1.50;1.00;;;20.20;48.90;;;;;;4996959;28;20041;-68
2022/02/13 02:41:59;;;;;;;1.27;0.90;;;20.20;48.40;;;;;;4997358;28;20038;-67
2022/02/13 02:44:25;;;;;;;1.50;0.98;;;20.20;48.40;;;;;;4996799;28;20501;-68
2022/02/13 02:46:51;;;;;;;1.75;0.90;;;20.20;48.40;;;;;;4994206;28;20041;-65
2022/02/13 02:49:16;;;;;;;1.48;0.82;;;20.20;48.40;;;;;;4995882;28;20025;-68
2022/02/13 02:51:42;;;;;;;1.02;0.80;;;20.20;48.40;;;;;;4998318;28;20038;-68
2022/02/13 02:54:08;;;;;;;1.25;0.90;;;20.10;48.30;;;;;;5012562;28;20022;-68
2022/02/13 02:56:33;;;;;;;1.35;0.93;;;20.20;48.40;;;;;;4998235;28;20471;-67
2022/02/13 02:58:59;;;;;;;1.42;0.88;;;20.20;48.40;;;;;;4994319;28;20037;-68
2022/02/13 03:01:25;;;;;;;2.33;1.10;;;20.20;48.40;;;;;;4997377;28;20037;-64
2022/02/13 03:03:50;;;;;;;1.83;1.00;;;20.10;48.30;;;;;;4996752;28;20025;-67
2022/02/13 03:06:16;;;;;;;1.35;0.90;;;20.10;48.30;;;;;;4996972;28;20108;-67
2022/02/13 03:08:42;;;;;;;1.05;0.80;;;20.20;48.40;;;;;;4996494;28;20084;-68
2022/02/13 03:11:09;;;;;;;1.50;0.90;;;20.10;48.30;;;;;;4997307;28;20062;-64
2022/02/13 03:13:35;;;;;;;1.58;0.93;;;20.10;48.30;;;;;;4996145;28;20033;-68
2022/02/13 03:16:01;;;;;;;1.73;0.93;;;20.10;48.30;;;;;;4994852;28;20372;-68
2022/02/13 03:18:30;;;;;;;1.55;0.80;;;20.10;48.30;;;;;;5011742;28;20041;-68
2022/02/13 03:20:57;;;;;;;1.00;0.70;;;20.10;48.30;;;;;;4997062;28;20536;-68
2022/02/13 03:23:22;;;;;;;1.00;0.73;;;20.10;48.30;;;;;;4997919;28;20088;-64
2022/02/13 03:25:48;;;;;;;1.73;1.00;;;20.10;48.30;;;;;;4996229;28;20037;-68
2022/02/13 03:28:15;;;;;;;0.88;0.70;;;20.10;48.30;;;;;;4996220;28;20076;-68
2022/02/13 03:30:41;;;;;;;1.65;0.90;;;20.10;48.30;;;;;;5009649;28;20145;-68
2022/02/13 03:33:07;;;;;;;1.23;0.80;;;20.10;48.30;;;;;;4997275;28;20429;-64
2022/02/13 03:35:33;;;;;;;1.15;0.90;;;20.10;48.30;;;;;;4998138;28;20038;-67
2022/02/13 03:37:59;;;;;;;1.50;0.85;;;20.00;48.20;;;;;;4997186;28;20096;-68
2022/02/13 03:40:26;;;;;;;1.33;0.90;;;20.10;48.30;;;;;;4996574;28;20129;-66
2022/02/13 03:42:51;;;;;;;1.25;0.80;;;20.00;48.20;;;;;;4997713;28;20096;-65
2022/02/13 03:45:17;;;;;;;1.25;0.80;;;20.10;48.30;;;;;;4995863;28;20060;-67
2022/02/13 03:47:43;;;;;;;1.60;1.00;;;20.10;48.30;;;;;;4996804;28;20421;-68
2022/02/13 03:50:09;;;;;;;1.02;0.80;;;20.10;48.30;;;;;;4995580;28;20073;-67
2022/02/13 03:52:35;;;;;;;1.08;0.80;;;20.00;48.20;;;;;;5012989;28;20105;-64
2022/02/13 03:55:00;;;;;;;1.35;0.90;;;20.00;48.20;;;;;;4996320;28;20036;-68
2022/02/13 03:57:28;;;;;;;1.58;1.00;;;20.10;48.30;;;;;;5010810;28;20112;-67
2022/02/13 03:59:54;;;;;;;1.65;0.90;;;20.00;48.20;;;;;;4994056;28;20088;-67
2022/02/13 04:02:19;;;;;;;1.05;0.80;;;20.00;48.20;;;;;;4996154;28;20062;-65
2022/02/13 04:04:45;;;;;;;1.40;0.90;;;20.00;48.20;;;;;;5011418;28;20022;-64
2022/02/13 04:07:11;;;;;;;1.98;1.00;;;20.00;48.20;;;;;;5012375;28;20120;-67
2022/02/13 04:09:37;;;;;;;1.60;1.00;;;20.00;48.20;;;;;;4995893;28;20030;-67
2022/02/13 04:12:03;;;;;;;1.25;0.90;;;20.00;48.20;;;;;;4997711;28;20044;-64
2022/02/13 04:14:32;;;;;;;1.65;0.90;;;20.00;48.20;;;;;;4995062;28;20129;-68
2022/02/13 04:16:57;;;;;;;1.30;0.80;;;20.00;48.30;;;;;;4996458;28;20398;-67
2022/02/13 04:19:23;;;;;;;1.20;0.80;;;20.00;48.30;;;;;;4995817;28;20133;-68
2022/02/13 04:21:49;;;;;;;1.42;0.80;;;20.00;48.30;;;;;;4998250;28;20034;-67
2022/02/13 04:24:14;;;;;;;1.80;0.95;;;20.00;48.30;;;;;;4995608;28;20030;-69
2022/02/13 04:26:40;;;;;;;1.85;0.95;;;20.00;48.30;;;;;;5012094;28;20415;-68
2022/02/13 04:29:07;;;;;;;1.30;0.90;;;19.90;48.90;;;;;;4998247;28;20032;-68
2022/02/13 04:31:33;;;;;;;1.45;0.82;;;19.90;48.40;;;;;;4998764;28;20046;-68
2022/02/13 04:33:58;;;;;;;2.05;1.00;;;19.90;48.40;;;;;;4999541;28;20025;-68
2022/02/13 04:36:24;;;;;;;1.38;0.88;;;19.90;48.40;;;;;;5001032;28;20149;-68
2022/02/13 04:38:50;;;;;;;1.02;0.80;;;19.90;48.50;;;;;;5000645;28;20064;-67
2022/02/13 04:41:16;;;;;;;1.33;0.80;;;19.90;48.50;;;;;;5015108;28;20242;-68
2022/02/13 04:43:41;;;;;;;1.30;1.00;;;19.90;48.50;;;;;;5004819;28;20120;-67
2022/02/13 04:46:07;;;;;;;1.52;0.80;;;19.90;48.50;;;;;;5013343;28;20479;-65
2022/02/13 04:48:33;;;;;;;1.67;0.90;;;19.90;48.50;;;;;;4997869;28;20034;-68
2022/02/13 04:50:59;;;;;;;1.10;0.90;;;19.90;48.50;;;;;;5014555;28;20570;-64
2022/02/13 04:53:24;;;;;;;1.45;0.90;;;19.80;48.50;;;;;;5000583;28;20486;-68
2022/02/13 04:55:50;;;;;;;0.93;0.80;;;19.80;48.50;;;;;;4999781;28;20470;-68
2022/02/13 04:58:18;;;;;;;1.35;0.90;;;19.80;48.50;;;;;;4999383;28;20033;-67
2022/02/13 05:00:45;;;;;;;1.35;0.90;;;19.80;48.50;;;;;;5011475;28;20454;-67
2022/02/13 05:03:11;;;;;;;1.45;0.82;;;19.80;48.50;;;;;;4998312;28;20093;-69
2022/02/13 05:05:37;;;;;;;1.17;0.80;;;19.80;48.50;;;;;;5000397;28;20126;-67
2022/02/13 05:08:02;;;;;;;1.27;0.90;;;19.80;49.10;;;;;;4999934;28;20019;-67
2022/02/13 05:10:28;;;;;;;1.25;0.80;;;19.80;48.50;;;;;;5014467;28;20025;-64
2022/02/13 05:12:54;;;;;;;1.40;0.80;;;19.80;48.50;;;;;;5000543;28;20084;-67
2022/02/13 05:15:21;;;;;;;1.33;0.90;;;19.80;48.50;;;;;;4998194;28;20042;-64
2022/02/13 05:17:47;;;;;;;1.20;0.80;;;19.80;48.50;;;;;;5000271;28;20118;-67
2022/02/13 05:20:13;;;;;;;1.65;0.88;;;19.80;48.50;;;;;;5014465;28;20752;-68
2022/02/13 05:22:39;;;;;;;1.17;0.93;;;19.80;48.50;;;;;;4998964;28;20044;-68
2022/02/13 05:25:05;;;;;;;1.55;0.98;;;19.80;48.50;;;;;;5000247;28;20052;-67
2022/02/13 05:27:31;;;;;;;1.10;0.80;;;19.80;48.50;;;;;;4997044;28;20022;-68
2022/02/13 05:29:56;;;;;;;1.35;0.90;;;19.80;49.10;;;;;;4996802;28;20030;-67
2022/02/13 05:32:22;;;;;;;1.08;0.77;;;19.80;48.50;;;;;;4999261;28;20044;-68
2022/02/13 05:34:48;;;;;;;1.30;0.90;;;19.80;48.50;;;;;;4999773;28;20037;-68
2022/02/13 05:37:14;;;;;;;1.70;0.90;;;19.80;48.50;;;;;;4999528;28;20033;-65
2022/02/13 05:39:40;;;;;;;1.38;1.00;;;19.80;48.50;;;;;;4996033;28;20026;-69
2022/02/13 05:42:06;;;;;;;1.45;0.90;;;19.80;48.60;;;;;;4998892;28;20032;-68
2022/02/13 05:44:31;;;;;;;1.00;0.90;;;19.80;48.60;;;;;;4998187;28;20497;-66
2022/02/13 05:46:57;;;;;;;1.33;0.90;;;19.80;48.60;;;;;;4998830;28;20056;-67
2022/02/13 05:49:23;;;;;;;1.08;0.80;;;19.80;48.60;;;;;;4995443;28;20026;-68
2022/02/13 05:51:49;;;;;;;1.48;0.82;;;19.80;48.60;;;;;;4999095;28;20358;-65
2022/02/13 05:54:14;;;;;;;1.00;0.80;;;19.70;48.50;;;;;;4998951;28;20509;-68
2022/02/13 05:56:41;;;;;;;1.35;0.90;;;19.80;48.60;;;;;;4999688;28;20062;-68
2022/02/13 05:59:07;;;;;;;0.85;0.70;;;19.80;48.60;;;;;;4997026;28;20161;-69
2022/02/13 06:01:33;;;;;;;1.52;0.90;;;19.80;48.60;;;;;;4997543;28;20583;-66
2022/02/13 06:03:59;;;;;;;1.30;1.00;;;19.80;48.60;;;;;;4998803;28;20118;-68
2022/02/13 06:06:24;;;;;;;1.05;0.88;;;19.70;48.60;;;;;;4998138;28;20569;-64
2022/02/13 06:08:50;;;;;;;1.13;0.88;;;19.80;48.60;;;;;;4998052;28;20502;-67
2022/02/13 06:11:16;;;;;;;1.15;0.90;;;19.70;48.50;;;;;;4999538;28;20022;-68
2022/02/13 06:13:42;;;;;;;1.10;0.82;;;19.80;48.60;;;;;;4997861;28;20049;-68
2022/02/13 06:16:08;;;;;;;1.17;0.88;;;19.70;48.50;;;;;;4995532;28;20057;-66
2022/02/13 06:18:34;;;;;;;1.00;0.88;;;19.80;48.60;;;;;;4997417;28;20034;-68
2022/02/13 06:21:01;;;;;;;1.02;0.88;;;19.70;48.50;;;;;;4998266;28;20599;-67
2022/02/13 06:23:27;;;;;;;1.52;0.90;;;19.70;48.50;;;;;;4998752;28;20061;-68
2022/02/13 06:25:53;;;;;;;1.98;1.00;;;19.70;48.50;;;;;;4999670;28;20505;-68
2022/02/13 06:28:18;;;;;;;1.13;0.80;;;19.70;48.50;;;;;;4995394;28;20564;-69
2022/02/13 06:30:44;;;;;;;0.95;0.80;;;19.70;48.50;;;;;;4996199;28;20038;-67
2022/02/13 06:33:10;;;;;;;1.02;0.70;;;19.70;48.60;;;;;;4998613;28;20040;-68
2022/02/13 06:35:36;;;;;;;1.33;0.90;;;19.70;48.60;;;;;;4998661;28;20026;-68
2022/02/13 06:38:02;;;;;;;0.93;0.70;;;19.70;48.60;;;;;;4997185;28;20545;-67
2022/02/13 06:40:28;;;;;;;1.40;0.90;;;19.70;48.60;;;;;;4997620;28;20054;-66
2022/02/13 06:42:54;;;;;;;1.10;0.80;;;19.70;48.60;;;;;;4998556;28;20061;-64
2022/02/13 06:45:20;;;;;;;1.10;0.80;;;19.70;48.60;;;;;;4994476;28;20490;-68
2022/02/13 06:47:46;;;;;;;0.90;0.73;;;19.70;48.60;;;;;;5012806;28;20049;-68
2022/02/13 06:50:12;;;;;;;1.60;0.90;;;19.70;48.60;;;;;;4995979;28;20125;-68
2022/02/13 06:52:38;;;;;;;1.15;1.00;;;19.70;48.60;;;;;;4997574;28;20045;-67
2022/02/13 06:55:04;;;;;;;1.10;0.85;;;19.70;48.60;;;;;;4999942;28;20057;-65
2022/02/13 06:57:29;;;;;;;1.40;0.90;;;19.70;48.60;;;;;;4997052;28;20026;-68
2022/02/13 06:59:55;;;;;;;1.55;0.90;;;19.70;48.60;;;;;;4992228;28;20488;-68
2022/02/13 07:02:21;;;;;;;1.27;0.80;;;19.70;48.60;;;;;;4993065;28;20183;-68
2022/02/13 07:04:46;;;;;;;1.02;0.70;;;19.70;48.60;;;;;;4992119;28;20030;-68
2022/02/13 07:07:12;;;;;;;1.10;0.82;;;19.70;48.60;;;;;;4993763;28;20328;-68
2022/02/13 07:09:38;;;;;;;1.38;0.88;;;19.70;48.60;;;;;;4992994;28;20026;-63
2022/02/13 07:12:09;;;;;;;1.42;0.90;;;19.70;48.60;;;;;;4995460;28;20746;-68
2022/02/13 07:14:39;;;;;;;1.00;0.90;;;19.70;48.60;;;;;;4990925;28;20445;-68
2022/02/13 07:17:05;;;;;;;1.10;0.88;;;19.70;48.60;;;;;;4995989;28;20030;-68
2022/02/13 07:19:31;;;;;;;1.30;0.80;;;19.70;48.60;;;;;;4992666;28;20026;-67
2022/02/13 07:21:57;;;;;;;1.88;1.00;;;19.70;48.60;;;;;;5011631;28;20034;-68
2022/02/13 07:24:23;;;;;;;1.40;0.90;;;19.70;48.60;;;;;;4995060;28;20420;-68
2022/02/13 07:26:49;;;;;;;1.30;0.90;;;19.70;48.60;;;;;;4995530;28;20048;-68
2022/02/13 07:29:15;;;;;;;1.42;0.95;;;19.70;48.60;;;;;;4991546;28;20433;-68
2022/02/13 07:31:40;;;;;;;1.60;1.00;;;19.70;48.60;;;;;;4992542;28;20038;-66
2022/02/13 07:34:07;;;;;;;1.40;0.88;;;19.70;48.60;;;;;;4992275;28;20040;-68
2022/02/13 07:36:35;;;;;;;1.05;0.80;;;19.70;48.60;;;;;;4994327;28;20029;-69
2022/02/13 07:39:02;;;;;;;1.30;0.82;;;19.70;48.60;;;;;;4994098;28;20486;-68
2022/02/13 07:41:28;;;;;;;1.67;1.05;;;19.70;48.60;;;;;;4993262;28;20038;-67
2022/02/13 07:43:55;;;;;;;1.52;0.90;;;19.70;48.60;;;;;;4992055;28;20030;-68
2022/02/13 07:46:21;;;;;;;1.98;1.40;;;19.70;48.60;;;;;;4993217;28;20042;-68
2022/02/13 07:48:47;;;;;;;1.58;0.98;;;19.70;48.50;;;;;;4994745;28;20200;-69
2022/02/13 07:51:14;;;;;;;1.90;1.20;;;19.70;48.40;;;;;;4995010;28;20032;-66
2022/02/13 07:53:40;;;;;;;2.65;1.40;;;19.70;48.40;;;;;;4993916;28;20169;-69
2022/02/13 07:56:07;;;;;;;1.85;1.20;;;19.70;48.20;;;;;;5009364;28;20042;-65
2022/02/13 07:58:33;;;;;;;2.13;1.40;;;19.70;48.10;;;;;;4993443;28;20274;-69
2022/02/13 08:01:00;;;;;;;2.65;1.50;;;19.70;48.00;;;;;;4991096;28;20069;-68
2022/02/13 08:03:26;;;;;;;2.70;1.80;;;19.70;47.80;;;;;;4994255;28;20320;-71
2022/02/13 08:05:52;;;;;;;2.80;1.73;;;19.70;47.70;;;;;;4993293;28;20042;-68
2022/02/13 08:08:17;;;;;;;3.28;1.65;;;19.70;47.70;;;;;;4994273;28;20022;-65
2022/02/13 08:10:43;;;;;;;3.22;1.70;;;19.70;47.50;;;;;;4995639;28;20040;-66
2022/02/13 08:13:09;;;;;;;2.92;1.88;;;19.70;47.50;;;;;;4992767;28;20777;-68
2022/02/13 08:15:34;;;;;;;2.97;2.00;;;19.70;47.50;;;;;;4991768;28;20403;-68
2022/02/13 08:18:11;;;;;;;2.90;1.90;;;19.70;47.50;;;;;;4993672;28;20039;-69
2022/02/13 08:20:37;;;;;;;3.38;1.83;;;19.70;47.40;;;;;;4992471;28;20054;-69
2022/02/13 08:23:03;;;;;;;2.38;1.65;;;19.70;47.40;;;;;;4992796;28;20037;-68
2022/02/13 08:25:29;;;;;;;3.25;2.15;;;19.70;47.40;;;;;;5007977;28;20117;-68
2022/02/13 08:27:55;;;;;;;3.53;2.00;;;19.70;47.40;;;;;;4994409;28;20152;-64
2022/02/13 08:30:21;;;;;;;3.15;2.00;;;19.70;47.30;;;;;;4989413;28;20488;-68
2022/02/13 08:32:46;;;;;;;3.03;1.90;;;19.70;47.40;;;;;;4995374;28;20053;-68
2022/02/13 08:35:12;;;;;;;2.85;2.00;;;19.70;47.30;;;;;;4993684;28;20038;-68
2022/02/13 08:37:38;;;;;;;3.20;1.98;;;19.70;47.40;;;;;;4995080;28;20046;-68
2022/02/13 08:40:04;;;;;;;2.53;1.85;;;19.70;47.30;;;;;;4994346;28;20052;-68
2022/02/13 08:42:30;;;;;;;2.53;1.80;;;19.70;47.40;;;;;;4991675;28;20243;-68
2022/02/13 08:44:55;;;;;;;3.42;2.08;;;19.70;47.40;;;;;;4992361;28;20030;-68
2022/02/13 08:47:21;;;;;;;2.97;1.95;;;19.70;47.40;;;;;;5009007;28;20033;-68
2022/02/13 08:49:49;;;;;;;3.33;2.20;;;19.70;47.50;;;;;;4993379;28;20248;-68
2022/02/13 08:52:17;;;;;;;3.70;2.20;;;19.70;47.50;;;;;;4993766;28;20021;-69
2022/02/13 08:54:44;;;;;;;3.22;2.08;;;19.70;47.50;;;;;;4993937;28;20049;-68
2022/02/13 08:57:10;;;;;;;3.15;2.20;;;19.70;47.60;;;;;;4994722;28;20058;-68
2022/02/13 08:59:35;;;;;;;3.22;2.08;;;19.70;47.60;;;;;;5005140;28;20530;-66
2022/02/13 09:02:01;;;;;;;2.97;1.90;;;19.70;47.70;;;;;;4997206;28;21149;-69
2022/02/13 09:04:27;;;;;;;3.55;2.20;;;19.70;47.80;;;;;;4993409;28;20466;-66
2022/02/13 09:06:54;;;;;;;4.07;2.10;;;19.70;47.90;;;;;;4993371;28;20029;-68
2022/02/13 09:09:20;;;;;;;2.95;2.10;;;19.70;48.10;;;;;;4991857;28;20065;-68
2022/02/13 09:11:46;;;;;;;3.13;2.20;;;19.70;48.10;;;;;;5009462;28;20506;-68
2022/02/13 09:14:12;;;;;;;3.05;2.10;;;19.70;48.30;;;;;;4992569;28;20137;-68
2022/02/13 09:16:38;;;;;;;3.20;2.20;;;19.80;48.40;;;;;;4997100;28;20228;-68
2022/02/13 09:19:03;;;;;;;3.60;2.20;;;19.80;48.60;;;;;;4994453;28;20042;-65
2022/02/13 09:21:29;;;;;;;2.97;2.00;;;19.80;48.90;;;;;;4999162;28;20037;-68
2022/02/13 09:23:55;;;;;;;2.95;2.10;;;19.80;49.10;;;;;;4995830;28;20034;-66
2022/02/13 09:26:20;;;;;;;3.15;2.05;;;19.80;49.20;;;;;;4997278;28;20030;-70
2022/02/13 09:28:46;;;;;;;2.95;1.92;;;19.80;49.10;;;;;;4994039;28;20486;-68
2022/02/13 09:31:12;;;;;;;4.63;1.83;;;19.80;49.30;;;;;;4995420;28;20037;-68
2022/02/13 09:33:37;;;;;;;3.22;2.00;;;19.80;49.30;;;;;;4998155;28;20205;-70
2022/02/13 09:36:04;;;;;;;3.40;1.92;;;19.80;49.30;;;;;;4998294;28;20045;-70
2022/02/13 09:38:29;;;;;;;3.30;2.22;;;19.80;49.30;;;;;;4997656;28;20070;-67
2022/02/13 09:40:55;;;;;;;3.75;2.28;;;19.80;49.40;;;;;;4994537;28;20026;-69
2022/02/13 09:43:21;;;;;;;3.15;2.00;;;19.80;49.50;;;;;;4993863;28;20141;-70
2022/02/13 09:45:51;;;;;;;2.90;1.95;;;19.80;49.50;;;;;;4993655;28;20038;-68
2022/02/13 09:48:22;;;;;;;3.13;2.10;;;19.80;49.60;;;;;;4995817;28;20037;-69
2022/02/13 09:50:48;;;;;;;3.53;1.80;;;19.80;49.80;;;;;;4996064;28;20026;-70
2022/02/13 09:53:16;;;;;;;3.28;1.90;;;19.80;49.90;;;;;;4996324;28;20038;-69
2022/02/13 09:55:42;;;;;;;3.15;2.15;;;19.80;50.00;;;;;;4995932;28;20470;-70
2022/02/13 09:58:08;;;;;;;3.90;2.30;;;19.90;50.10;;;;;;4995243;28;20033;-70
2022/02/13 10:01:00;;;;;;;2.60;1.95;;;19.90;50.10;;;;;;4993662;28;20549;-70
2022/02/13 10:03:27;;;;;;;2.67;1.90;;;19.90;50.00;;;;;;4996683;28;20391;-68
2022/02/13 10:05:56;;;;;;;3.95;2.17;;;19.90;50.00;;;;;;4994187;28;20779;-70
2022/02/13 10:08:42;;;;;;;3.88;1.90;;;19.90;49.90;;;;;;4995456;28;20030;-70
2022/02/13 10:11:34;;;;;;;3.22;2.10;;;19.90;50.00;;;;;;4993851;28;20132;-69
2022/02/13 10:14:05;;;;;;;4.13;2.10;;;19.90;50.00;;;;;;4994546;28;20045;-67
2022/02/13 10:16:39;;;;;;;3.47;2.00;;;19.90;50.00;;;;;;4995849;28;20038;-68
2022/02/13 10:19:12;;;;;;;4.65;2.17;;;19.90;50.10;;;;;;4994675;28;20037;-68
2022/02/13 10:21:49;;;;;;;3.00;2.00;;;19.90;50.10;;;;;;4995604;28;20823;-68
2022/02/13 10:24:25;;;;;;;4.45;1.92;;;19.90;50.30;;;;;;4993699;28;20030;-70
2022/02/13 10:26:51;;;;;;;2.97;2.05;;;19.90;50.30;;;;;;4995951;28;20034;-69
2022/02/13 10:29:19;;;;;;;3.13;2.20;;;19.90;50.20;;;;;;5007661;28;20038;-68
2022/02/13 10:31:45;;;;;;;3.30;2.28;;;20.00;50.30;;;;;;4990016;28;20038;-67
2022/02/13 10:34:17;;;;;;;2.80;2.00;;;19.90;50.50;;;;;;4999119;28;20615;-68
2022/02/13 10:36:45;;;;;;;3.25;1.98;;;20.00;50.90;;;;;;5001588;28;20072;-69
2022/02/13 10:39:18;;;;;;;3.60;2.20;;;20.10;50.90;;;;;;4996626;28;20523;-69
2022/02/13 10:41:44;;;;;;;3.28;2.30;;;20.10;51.30;;;;;;5002585;28;20052;-67
2022/02/13 10:44:09;;;;;;;3.83;2.20;;;20.10;50.70;;;;;;5000809;28;20502;-64
2022/02/13 10:46:40;;;;;;;3.10;1.92;;;20.20;50.60;;;;;;5001835;28;20111;-68
2022/02/13 10:49:07;;;;;;;3.75;1.80;;;20.20;50.60;;;;;;4996519;28;20056;-69
2022/02/13 10:51:34;;;;;;;4.07;1.80;;;20.20;51.10;;;;;;5001572;28;20172;-68
2022/02/13 10:54:04;;;;;;;3.63;1.80;;;20.30;50.50;;;;;;4999756;28;20045;-67
2022/02/13 10:56:30;;;;;;;2.95;1.65;;;20.30;50.50;;;;;;4999267;28;20436;-69
2022/02/13 10:58:56;;;;;;;2.90;1.85;;;20.30;50.40;;;;;;5000781;28;20037;-68
2022/02/13 11:01:23;;;;;;;3.10;1.75;;;20.40;50.30;;;;;;4998679;28;20612;-68
2022/02/13 11:03:51;;;;;;;2.53;1.80;;;20.40;50.50;;;;;;5000923;28;21108;-67
2022/02/13 11:06:17;;;;;;;3.15;1.90;;;20.40;50.30;;;;;;5002933;28;20113;-68
2022/02/13 11:09:03;;;;;;;3.85;1.73;;;20.50;50.80;;;;;;5001143;28;20045;-67
2022/02/13 11:11:30;;;;;;;2.55;1.70;;;20.50;50.60;;;;;;5018775;28;20045;-65
2022/02/13 11:13:56;;;;;;;3.28;1.80;;;20.60;50.70;;;;;;5000728;28;20117;-68
2022/02/13 11:16:38;;;;;;;3.80;2.00;;;20.60;50.70;;;;;;5006376;28;20076;-67
2022/02/13 11:19:03;;;;;;;2.88;1.73;;;20.70;50.90;;;;;;5002148;28;20708;-66
2022/02/13 11:21:31;;;;;;;2.90;1.83;;;20.70;51.00;;;;;;5003124;28;20040;-67
2022/02/13 11:23:58;;;;;;;3.15;1.75;;;20.80;51.20;;;;;;5002705;28;20025;-69
2022/02/13 11:26:37;;;;;;;3.63;1.80;;;20.80;51.00;;;;;;5000141;28;20073;-66
2022/02/13 11:29:03;;;;;;;2.95;1.70;;;20.80;51.00;;;;;;4999787;28;20034;-67
2022/02/13 11:31:39;;;;;;;3.45;1.67;;;20.80;50.80;;;;;;5001452;28;20092;-67
2022/02/13 11:34:07;;;;;;;2.65;1.63;;;20.80;50.90;;;;;;4999129;28;20026;-65
2022/02/13 11:36:54;;;;;;;2.97;1.60;;;20.80;51.00;;;;;;5001604;28;20450;-68
2022/02/13 11:39:43;;;;;;;2.72;1.50;;;20.90;51.20;;;;;;4998071;28;20124;-67
2022/02/13 11:42:19;;;;;;;3.20;1.40;;;20.90;51.20;;;;;;4999662;28;20079;-69
2022/02/13 11:44:54;;;;;;;2.55;1.50;;;20.90;51.10;;;;;;4998102;28;20115;-68
2022/02/13 11:47:32;;;;;;;2.80;1.50;;;20.90;50.90;;;;;;4998278;28;20494;-67
2022/02/13 11:50:07;;;;;;;2.35;1.65;;;21.00;51.00;;;;;;4997082;28;20045;-67
2022/02/13 11:52:35;;;;;;;3.40;1.90;;;20.90;50.80;;;;;;5006227;28;20136;-68
2022/02/13 11:55:04;;;;;;;2.70;1.67;;;21.00;50.70;;;;;;4999428;28;20030;-67
2022/02/13 11:57:33;;;;;;;2.53;1.67;;;21.00;50.70;;;;;;4992488;28;20032;-66
2022/02/13 11:59:58;;;;;;;3.27;1.70;;;21.10;50.60;;;;;;5011964;28;20489;-64
2022/02/13 12:02:30;;;;;;;3.05;1.52;;;21.10;50.50;;;;;;4994299;28;20730;-68
2022/02/13 12:05:09;;;;;;;2.20;1.48;;;21.10;50.40;;;;;;4999508;28;20072;-63
2022/02/13 12:07:37;;;;;;;;;;;21.10;50.30;;;;;;5001380;28;20026;-67
2022/02/13 12:10:13;;;;;;;2.17;1.30;;;21.10;50.30;;;;;;4998868;28;19925;-66
2022/02/13 12:12:42;;;;;;;2.42;1.42;;;21.20;50.20;;;;;;4999246;28;20045;-67
2022/02/13 12:15:08;;;;;;;2.05;1.30;;;21.20;50.10;;;;;;4998927;28;20037;-67
2022/02/13 12:17:34;;;;;;;2.28;1.38;;;21.20;50.00;;;;;;4999509;28;20065;-67
2022/02/13 12:20:07;;;;;;;2.80;1.60;;;21.20;50.10;;;;;;4998018;28;20473;-67
2022/02/13 12:22:34;;;;;;;3.00;1.55;;;21.20;50.00;;;;;;5017378;28;20065;-68
2022/02/13 12:25:03;;;;;;;2.35;1.40;;;21.20;50.00;;;;;;4998239;28;20034;-65
2022/02/13 12:27:29;;;;;;;2.35;1.40;;;21.30;50.10;;;;;;5001933;28;20087;-67
2022/02/13 12:30:05;;;;;;;2.97;1.40;;;21.30;50.00;;;;;;4998705;28;20026;-68
2022/02/13 12:32:40;;;;;;;2.20;1.45;;;21.30;49.90;;;;;;4998983;28;20045;-66
2022/02/13 12:35:09;;;;;;;3.03;1.50;;;21.30;49.80;;;;;;5001239;28;20037;-66
2022/02/13 12:37:45;;;;;;;3.22;1.52;;;21.30;49.70;;;;;;5002880;28;20636;-66
2022/02/13 12:40:32;;;;;;;2.40;1.35;;;21.30;49.80;;;;;;4997775;28;20685;-67
2022/02/13 12:43:07;;;;;;;3.78;1.63;;;21.30;49.70;;;;;;4999420;28;20037;-68
2022/02/13 12:45:36;;;;;;;2.03;1.25;;;21.40;49.60;;;;;;4992376;28;20547;-68
2022/02/13 12:48:14;;;;;;;2.17;1.30;;;21.40;49.70;;;;;;4999359;28;20036;-68